sensor_id;sensor_type;location;lat;lon;timestamp;pressure;altitude;pressure_sealevel;temperature;humidity
8398;BME280;4236;54.504;9.588;2022-08-21T00:01:41;101581.91;;;13.72;98.10
8398;BME280;4236;54.504;9.588;2022-08-21T00:04:10;101575.91;;;13.70;97.91
8398;BME280;4236;54.504;9.588;2022-08-21T00:06:46;101577.31;;;13.66;97.98
8398;BME280;4236;54.504;9.588;2022-08-21T00:09:14;101577.72;;;13.63;98.39
8398;BME280;4236;54.504;9.588;2022-08-21T00:11:42;101574.81;;;13.58;98.61
8398;BME280;4236;54.504;9.588;2022-08-21T00:14:10;101576.03;;;13.55;98.79
8398;BME280;4236;54.504;9.588;2022-08-21T00:16:38;101581.31;;;13.49;98.44
8398;BME280;4236;54.504;9.588;2022-08-21T00:19:06;101572.41;;;13.42;98.28
8398;BME280;4236;54.504;9.588;2022-08-21T00:21:35;101566.59;;;13.38;98.44
8398;BME280;4236;54.504;9.588;2022-08-21T00:24:05;101571.97;;;13.38;99.31
8398;BME280;4236;54.504;9.588;2022-08-21T00:26:33;101571.34;;;13.36;99.23
8398;BME280;4236;54.504;9.588;2022-08-21T00:29:03;101570.72;;;13.34;99.44
8398;BME280;4236;54.504;9.588;2022-08-21T00:31:31;101568.59;;;13.29;99.23
8398;BME280;4236;54.504;9.588;2022-08-21T00:33:59;101574.56;;;13.25;99.56
8398;BME280;4236;54.504;9.588;2022-08-21T00:36:27;101574.31;;;13.20;99.25
8398;BME280;4236;54.504;9.588;2022-08-21T00:38:55;101570.16;;;13.17;99.93
8398;BME280;4236;54.504;9.588;2022-08-21T00:41:24;101574.88;;;13.15;100.00
8398;BME280;4236;54.504;9.588;2022-08-21T00:44:03;101572.41;;;13.14;100.00
8398;BME280;4236;54.504;9.588;2022-08-21T00:46:31;101566.59;;;13.10;100.00
8398;BME280;4236;54.504;9.588;2022-08-21T00:48:58;101567.13;;;13.06;100.00
8398;BME280;4236;54.504;9.588;2022-08-21T00:51:32;101574.53;;;13.04;100.00
8398;BME280;4236;54.504;9.588;2022-08-21T00:54:04;101573.53;;;13.05;100.00
8398;BME280;4236;54.504;9.588;2022-08-21T00:56:46;101567.53;;;13.03;100.00
8398;BME280;4236;54.504;9.588;2022-08-21T00:59:16;101573.25;;;13.00;100.00
8398;BME280;4236;54.504;9.588;2022-08-21T01:01:45;101575.09;;;12.99;100.00
8398;BME280;4236;54.504;9.588;2022-08-21T01:04:13;101563.97;;;12.96;100.00
8398;BME280;4236;54.504;9.588;2022-08-21T01:06:42;101566.66;;;12.96;100.00
8398;BME280;4236;54.504;9.588;2022-08-21T01:09:10;101567.44;;;12.96;100.00
8398;BME280;4236;54.504;9.588;2022-08-21T01:11:39;101571.63;;;12.99;100.00
8398;BME280;4236;54.504;9.588;2022-08-21T01:14:09;101568.28;;;12.97;100.00
8398;BME280;4236;54.504;9.588;2022-08-21T01:16:39;101568.94;;;12.99;100.00
8398;BME280;4236;54.504;9.588;2022-08-21T01:19:08;101564.41;;;12.99;100.00
8398;BME280;4236;54.504;9.588;2022-08-21T01:21:38;101569.75;;;12.99;100.00
8398;BME280;4236;54.504;9.588;2022-08-21T01:24:06;101558.88;;;13.01;100.00
8398;BME280;4236;54.504;9.588;2022-08-21T01:26:35;101569.38;;;13.02;100.00
8398;BME280;4236;54.504;9.588;2022-08-21T01:29:07;101572.88;;;13.03;100.00
8398;BME280;4236;54.504;9.588;2022-08-21T01:31:37;101566.50;;;13.04;100.00
8398;BME280;4236;54.504;9.588;2022-08-21T01:34:05;101567.13;;;13.06;100.00
8398;BME280;4236;54.504;9.588;2022-08-21T01:36:34;101568.97;;;13.05;100.00
8398;BME280;4236;54.504;9.588;2022-08-21T01:39:04;101570.03;;;13.04;100.00
8398;BME280;4236;54.504;9.588;2022-08-21T01:41:32;101565.50;;;13.05;100.00
8398;BME280;4236;54.504;9.588;2022-08-21T01:44:00;101572.31;;;13.07;100.00
8398;BME280;4236;54.504;9.588;2022-08-21T01:46:28;101567.81;;;13.08;100.00
8398;BME280;4236;54.504;9.588;2022-08-21T01:48:56;101564.09;;;13.09;100.00
8398;BME280;4236;54.504;9.588;2022-08-21T01:51:24;101571.13;;;13.10;100.00
8398;BME280;4236;54.504;9.588;2022-08-21T01:53:52;101569.63;;;13.07;100.00
8398;BME280;4236;54.504;9.588;2022-08-21T01:56:21;101561.78;;;13.06;100.00
8398;BME280;4236;54.504;9.588;2022-08-21T01:58:49;101570.66;;;13.06;100.00
8398;BME280;4236;54.504;9.588;2022-08-21T02:01:16;101560.78;;;13.07;100.00
8398;BME280;4236;54.504;9.588;2022-08-21T02:03:44;101564.47;;;13.06;100.00
8398;BME280;4236;54.504;9.588;2022-08-21T02:06:14;101551.91;;;13.06;100.00
8398;BME280;4236;54.504;9.588;2022-08-21T02:08:44;101557.13;;;13.08;100.00
8398;BME280;4236;54.504;9.588;2022-08-21T02:11:12;101559.94;;;13.06;100.00
8398;BME280;4236;54.504;9.588;2022-08-21T02:13:41;101566.97;;;13.07;100.00
8398;BME280;4236;54.504;9.588;2022-08-21T02:16:08;101554.22;;;13.09;100.00
8398;BME280;4236;54.504;9.588;2022-08-21T02:18:36;101563.72;;;13.12;100.00
8398;BME280;4236;54.504;9.588;2022-08-21T02:21:04;101562.88;;;13.11;100.00
8398;BME280;4236;54.504;9.588;2022-08-21T02:23:32;101550.16;;;13.13;100.00
8398;BME280;4236;54.504;9.588;2022-08-21T02:26:01;101556.34;;;13.14;100.00
8398;BME280;4236;54.504;9.588;2022-08-21T02:28:31;101549.09;;;13.14;100.00
8398;BME280;4236;54.504;9.588;2022-08-21T02:31:00;101558.63;;;13.17;100.00
8398;BME280;4236;54.504;9.588;2022-08-21T02:33:28;101549.56;;;13.18;100.00
8398;BME280;4236;54.504;9.588;2022-08-21T02:35:56;101555.75;;;13.18;100.00
8398;BME280;4236;54.504;9.588;2022-08-21T02:38:27;101547.72;;;13.18;100.00
8398;BME280;4236;54.504;9.588;2022-08-21T02:40:56;101542.34;;;13.18;100.00
8398;BME280;4236;54.504;9.588;2022-08-21T02:43:26;101548.34;;;13.20;100.00
8398;BME280;4236;54.504;9.588;2022-08-21T02:45:55;101535.34;;;13.17;100.00
8398;BME280;4236;54.504;9.588;2022-08-21T02:48:26;101537.00;;;13.18;100.00
8398;BME280;4236;54.504;9.588;2022-08-21T02:50:56;101538.66;;;13.19;100.00
8398;BME280;4236;54.504;9.588;2022-08-21T02:53:24;101537.84;;;13.19;100.00
8398;BME280;4236;54.504;9.588;2022-08-21T02:55:53;101533.50;;;13.18;100.00
8398;BME280;4236;54.504;9.588;2022-08-21T02:58:24;101531.63;;;13.18;100.00
8398;BME280;4236;54.504;9.588;2022-08-21T03:00:53;101532.47;;;13.19;100.00
8398;BME280;4236;54.504;9.588;2022-08-21T03:03:21;101526.28;;;13.18;100.00
8398;BME280;4236;54.504;9.588;2022-08-21T03:05:51;101526.28;;;13.18;100.00
8398;BME280;4236;54.504;9.588;2022-08-21T03:08:19;101527.75;;;13.21;100.00
8398;BME280;4236;54.504;9.588;2022-08-21T03:10:51;101520.53;;;13.21;100.00
8398;BME280;4236;54.504;9.588;2022-08-21T03:13:19;101528.41;;;13.23;100.00
8398;BME280;4236;54.504;9.588;2022-08-21T03:15:48;101531.06;;;13.23;100.00
8398;BME280;4236;54.504;9.588;2022-08-21T03:18:17;101523.03;;;13.23;100.00
8398;BME280;4236;54.504;9.588;2022-08-21T03:20:45;101524.06;;;13.22;100.00
8398;BME280;4236;54.504;9.588;2022-08-21T03:23:15;101526.09;;;13.20;100.00
8398;BME280;4236;54.504;9.588;2022-08-21T03:25:46;101525.44;;;13.18;100.00
8398;BME280;4236;54.504;9.588;2022-08-21T03:28:16;101529.34;;;13.15;100.00
8398;BME280;4236;54.504;9.588;2022-08-21T03:30:45;101526.22;;;13.12;100.00
8398;BME280;4236;54.504;9.588;2022-08-21T03:33:13;101525.59;;;13.10;100.00
8398;BME280;4236;54.504;9.588;2022-08-21T03:35:42;101524.13;;;13.07;100.00
8398;BME280;4236;54.504;9.588;2022-08-21T03:38:11;101518.94;;;13.06;100.00
8398;BME280;4236;54.504;9.588;2022-08-21T03:40:41;101520.59;;;13.07;100.00
8398;BME280;4236;54.504;9.588;2022-08-21T03:43:10;101522.44;;;13.06;100.00
8398;BME280;4236;54.504;9.588;2022-08-21T03:45:38;101525.13;;;13.06;100.00
8398;BME280;4236;54.504;9.588;2022-08-21T03:48:07;101519.97;;;13.05;100.00
8398;BME280;4236;54.504;9.588;2022-08-21T03:50:39;101514.81;;;13.03;100.00
8398;BME280;4236;54.504;9.588;2022-08-21T03:53:07;101519.97;;;13.05;100.00
8398;BME280;4236;54.504;9.588;2022-08-21T03:55:46;101524.28;;;13.06;100.00
8398;BME280;4236;54.504;9.588;2022-08-21T03:58:14;101514.63;;;13.05;100.00
8398;BME280;4236;54.504;9.588;2022-08-21T04:00:43;101514.81;;;13.03;100.00
8398;BME280;4236;54.504;9.588;2022-08-21T04:03:11;101519.16;;;13.04;100.00
8398;BME280;4236;54.504;9.588;2022-08-21T04:05:39;101515.63;;;13.04;100.00
8398;BME280;4236;54.504;9.588;2022-08-21T04:08:07;101517.31;;;13.05;100.00
8398;BME280;4236;54.504;9.588;2022-08-21T04:10:37;101513.78;;;13.04;100.00
8398;BME280;4236;54.504;9.588;2022-08-21T04:13:07;101519.63;;;13.08;100.00
8398;BME280;4236;54.504;9.588;2022-08-21T04:15:35;101516.94;;;13.08;100.00
8398;BME280;4236;54.504;9.588;2022-08-21T04:18:04;101514.06;;;13.09;100.00
8398;BME280;4236;54.504;9.588;2022-08-21T04:20:32;101514.69;;;13.11;100.00
8398;BME280;4236;54.504;9.588;2022-08-21T04:23:00;101523.16;;;13.15;100.00
8398;BME280;4236;54.504;9.588;2022-08-21T04:25:28;101525.06;;;13.21;100.00
8398;BME280;4236;54.504;9.588;2022-08-21T04:27:55;101516.84;;;13.22;100.00
8398;BME280;4236;54.504;9.588;2022-08-21T04:30:24;101517.28;;;13.26;100.00
8398;BME280;4236;54.504;9.588;2022-08-21T04:32:55;101522.88;;;13.31;100.00
8398;BME280;4236;54.504;9.588;2022-08-21T04:35:25;101517.75;;;13.36;100.00
8398;BME280;4236;54.504;9.588;2022-08-21T04:37:53;101514.91;;;13.44;100.00
8398;BME280;4236;54.504;9.588;2022-08-21T04:40:21;101516.63;;;13.52;100.00
8398;BME280;4236;54.504;9.588;2022-08-21T04:42:53;101521.44;;;13.63;100.00
8398;BME280;4236;54.504;9.588;2022-08-21T04:45:25;101514.25;;;13.70;100.00
8398;BME280;4236;54.504;9.588;2022-08-21T04:47:55;101511.41;;;13.78;100.00
8398;BME280;4236;54.504;9.588;2022-08-21T04:50:28;101513.91;;;13.86;100.00
8398;BME280;4236;54.504;9.588;2022-08-21T04:52:56;101510.03;;;13.95;100.00
8398;BME280;4236;54.504;9.588;2022-08-21T04:55:25;101517.72;;;14.05;100.00
8398;BME280;4236;54.504;9.588;2022-08-21T04:57:54;101517.97;;;14.16;100.00
8398;BME280;4236;54.504;9.588;2022-08-21T05:00:25;101517.03;;;14.37;100.00
8398;BME280;4236;54.504;9.588;2022-08-21T05:02:53;101521.25;;;14.99;100.00
8398;BME280;4236;54.504;9.588;2022-08-21T05:05:27;101517.75;;;16.01;100.00
8398;BME280;4236;54.504;9.588;2022-08-21T05:07:56;101512.31;;;16.90;100.00
8398;BME280;4236;54.504;9.588;2022-08-21T05:10:25;101514.50;;;17.67;96.83
8398;BME280;4236;54.504;9.588;2022-08-21T05:12:52;101517.34;;;18.39;88.28
8398;BME280;4236;54.504;9.588;2022-08-21T05:15:20;101515.44;;;19.10;85.84
8398;BME280;4236;54.504;9.588;2022-08-21T05:17:49;101522.00;;;19.84;84.35
8398;BME280;4236;54.504;9.588;2022-08-21T05:20:26;101523.03;;;20.63;82.85
8398;BME280;4236;54.504;9.588;2022-08-21T05:22:53;101526.53;;;21.25;77.29
8398;BME280;4236;54.504;9.588;2022-08-21T05:25:21;101515.81;;;21.90;74.91
8398;BME280;4236;54.504;9.588;2022-08-21T05:27:49;101515.31;;;22.41;68.89
8398;BME280;4236;54.504;9.588;2022-08-21T05:30:18;101517.63;;;23.13;68.22
8398;BME280;4236;54.504;9.588;2022-08-21T05:32:46;101521.28;;;23.76;65.82
8398;BME280;4236;54.504;9.588;2022-08-21T05:35:15;101518.25;;;24.29;64.17
8398;BME280;4236;54.504;9.588;2022-08-21T05:37:43;101519.47;;;24.89;62.07
8398;BME280;4236;54.504;9.588;2022-08-21T05:40:11;101522.97;;;25.50;60.12
8398;BME280;4236;54.504;9.588;2022-08-21T05:42:48;101518.81;;;25.77;57.73
8398;BME280;4236;54.504;9.588;2022-08-21T05:45:20;101516.47;;;26.05;55.98
8398;BME280;4236;54.504;9.588;2022-08-21T05:48:09;101512.06;;;26.63;53.72
8398;BME280;4236;54.504;9.588;2022-08-21T05:50:39;101517.22;;;27.03;52.40
8398;BME280;4236;54.504;9.588;2022-08-21T05:53:07;101501.78;;;27.17;51.63
8398;BME280;4236;54.504;9.588;2022-08-21T05:55:36;101508.09;;;27.46;49.16
8398;BME280;4236;54.504;9.588;2022-08-21T05:58:10;101496.63;;;27.44;47.55
8398;BME280;4236;54.504;9.588;2022-08-21T06:00:38;101505.00;;;27.77;48.54
8398;BME280;4236;54.504;9.588;2022-08-21T06:03:10;101498.88;;;28.27;45.99
8398;BME280;4236;54.504;9.588;2022-08-21T06:05:39;101501.53;;;28.70;47.04
8398;BME280;4236;54.504;9.588;2022-08-21T06:08:07;101491.16;;;28.99;46.58
8398;BME280;4236;54.504;9.588;2022-08-21T06:10:35;101489.78;;;29.15;45.07
8398;BME280;4236;54.504;9.588;2022-08-21T06:13:02;101485.75;;;29.26;41.14
8398;BME280;4236;54.504;9.588;2022-08-21T06:15:30;101490.31;;;29.31;43.51
8398;BME280;4236;54.504;9.588;2022-08-21T06:17:58;101490.16;;;29.68;43.08
8398;BME280;4236;54.504;9.588;2022-08-21T06:20:26;101480.06;;;29.77;42.13
8398;BME280;4236;54.504;9.588;2022-08-21T06:22:55;101486.16;;;30.01;41.49
8398;BME280;4236;54.504;9.588;2022-08-21T06:25:24;101489.41;;;30.03;40.83
8398;BME280;4236;54.504;9.588;2022-08-21T06:27:52;101481.97;;;30.04;40.59
8398;BME280;4236;54.504;9.588;2022-08-21T06:30:20;101492.72;;;30.28;38.02
8398;BME280;4236;54.504;9.588;2022-08-21T06:32:47;101493.84;;;30.40;36.82
8398;BME280;4236;54.504;9.588;2022-08-21T06:35:15;101484.13;;;30.29;36.62
8398;BME280;4236;54.504;9.588;2022-08-21T06:37:43;101488.06;;;30.50;38.01
8398;BME280;4236;54.504;9.588;2022-08-21T06:40:12;101485.16;;;30.69;35.91
8398;BME280;4236;54.504;9.588;2022-08-21T06:42:40;101492.78;;;30.72;35.25
8398;BME280;4236;54.504;9.588;2022-08-21T06:45:08;101486.69;;;30.84;36.40
8398;BME280;4236;54.504;9.588;2022-08-21T06:47:36;101500.59;;;30.79;37.86
8398;BME280;4236;54.504;9.588;2022-08-21T06:50:05;101492.03;;;31.02;36.28
8398;BME280;4236;54.504;9.588;2022-08-21T06:52:34;101489.19;;;31.16;37.20
8398;BME280;4236;54.504;9.588;2022-08-21T06:55:03;101497.06;;;31.00;36.17
8398;BME280;4236;54.504;9.588;2022-08-21T06:57:33;101488.59;;;30.75;35.09
8398;BME280;4236;54.504;9.588;2022-08-21T07:00:03;101490.41;;;31.01;36.91
8398;BME280;4236;54.504;9.588;2022-08-21T07:02:31;101488.28;;;30.98;36.28
8398;BME280;4236;54.504;9.588;2022-08-21T07:05:00;101485.63;;;30.93;35.73
8398;BME280;4236;54.504;9.588;2022-08-21T07:07:43;101482.97;;;31.02;36.95
8398;BME280;4236;54.504;9.588;2022-08-21T07:10:11;101490.63;;;31.13;35.86
8398;BME280;4236;54.504;9.588;2022-08-21T07:12:49;101480.66;;;30.73;34.59
8398;BME280;4236;54.504;9.588;2022-08-21T07:15:28;101476.25;;;30.50;35.36
8398;BME280;4236;54.504;9.588;2022-08-21T07:17:56;101476.09;;;30.46;36.57
8398;BME280;4236;54.504;9.588;2022-08-21T07:20:25;101480.34;;;30.52;36.74
8398;BME280;4236;54.504;9.588;2022-08-21T07:22:53;101478.97;;;30.28;36.08
8398;BME280;4236;54.504;9.588;2022-08-21T07:25:21;101470.09;;;29.95;34.03
8398;BME280;4236;54.504;9.588;2022-08-21T07:27:50;101467.88;;;29.83;36.67
8398;BME280;4236;54.504;9.588;2022-08-21T07:30:18;101473.88;;;29.85;36.53
8398;BME280;4236;54.504;9.588;2022-08-21T07:32:46;101468.56;;;29.61;36.64
8398;BME280;4236;54.504;9.588;2022-08-21T07:35:16;101465.63;;;29.44;36.92
8398;BME280;4236;54.504;9.588;2022-08-21T07:37:43;101464.06;;;29.25;36.62
8398;BME280;4236;54.504;9.588;2022-08-21T07:40:11;101457.53;;;28.75;37.79
8398;BME280;4236;54.504;9.588;2022-08-21T07:42:40;101464.63;;;28.25;38.07
8398;BME280;4236;54.504;9.588;2022-08-21T07:45:11;101465.75;;;27.58;37.92
8398;BME280;4236;54.504;9.588;2022-08-21T07:47:39;101469.13;;;27.26;39.28
8398;BME280;4236;54.504;9.588;2022-08-21T07:50:09;101470.28;;;26.91;40.05
8398;BME280;4236;54.504;9.588;2022-08-21T07:52:37;101471.41;;;26.51;41.07
8398;BME280;4236;54.504;9.588;2022-08-21T07:55:06;101472.44;;;26.21;41.86
8398;BME280;4236;54.504;9.588;2022-08-21T07:57:34;101473.38;;;25.92;42.67
8398;BME280;4236;54.504;9.588;2022-08-21T08:00:03;101473.97;;;25.83;43.00
8398;BME280;4236;54.504;9.588;2022-08-21T08:02:32;101472.09;;;25.69;43.59
8398;BME280;4236;54.504;9.588;2022-08-21T08:05:00;101477.31;;;25.65;44.39
8398;BME280;4236;54.504;9.588;2022-08-21T08:07:28;101474.88;;;25.59;44.61
8398;BME280;4236;54.504;9.588;2022-08-21T08:09:56;101480.00;;;25.75;44.55
8398;BME280;4236;54.504;9.588;2022-08-21T08:12:25;101477.28;;;25.75;44.88
8398;BME280;4236;54.504;9.588;2022-08-21T08:14:56;101480.53;;;25.82;45.49
8398;BME280;4236;54.504;9.588;2022-08-21T08:17:23;101474.69;;;25.99;45.26
8398;BME280;4236;54.504;9.588;2022-08-21T08:19:53;101465.84;;;26.22;44.94
8398;BME280;4236;54.504;9.588;2022-08-21T08:22:22;101463.41;;;26.21;44.56
8398;BME280;4236;54.504;9.588;2022-08-21T08:24:51;101479.19;;;26.29;44.68
8398;BME280;4236;54.504;9.588;2022-08-21T08:27:20;101480.34;;;26.23;44.21
8398;BME280;4236;54.504;9.588;2022-08-21T08:29:49;101472.75;;;26.05;44.32
8398;BME280;4236;54.504;9.588;2022-08-21T08:32:17;101469.88;;;25.86;45.38
8398;BME280;4236;54.504;9.588;2022-08-21T08:34:45;101469.63;;;25.77;45.49
8398;BME280;4236;54.504;9.588;2022-08-21T08:37:16;101470.81;;;25.41;46.45
8398;BME280;4236;54.504;9.588;2022-08-21T08:39:47;101465.91;;;25.38;46.28
8398;BME280;4236;54.504;9.588;2022-08-21T08:42:21;101461.78;;;25.51;46.89
8398;BME280;4236;54.504;9.588;2022-08-21T08:45:03;101454.69;;;25.40;47.36
8398;BME280;4236;54.504;9.588;2022-08-21T08:47:35;101456.38;;;25.36;47.07
8398;BME280;4236;54.504;9.588;2022-08-21T08:50:08;101446.50;;;25.40;47.57
8398;BME280;4236;54.504;9.588;2022-08-21T08:52:43;101448.13;;;25.46;47.74
8398;BME280;4236;54.504;9.588;2022-08-21T08:55:17;101447.34;;;25.30;48.65
8398;BME280;4236;54.504;9.588;2022-08-21T08:57:53;101446.00;;;25.27;48.19
8398;BME280;4236;54.504;9.588;2022-08-21T09:00:23;101451.16;;;25.44;48.69
8398;BME280;4236;54.504;9.588;2022-08-21T09:02:53;101447.88;;;25.37;47.90
8398;BME280;4236;54.504;9.588;2022-08-21T09:05:24;101440.22;;;25.44;47.75
8398;BME280;4236;54.504;9.588;2022-08-21T09:08:15;101431.75;;;25.51;47.97
8398;BME280;4236;54.504;9.588;2022-08-21T09:10:53;101439.66;;;25.47;48.40
8398;BME280;4236;54.504;9.588;2022-08-21T09:13:29;101440.03;;;25.20;49.47
8398;BME280;4236;54.504;9.588;2022-08-21T09:16:09;101431.53;;;25.22;49.03
8398;BME280;4236;54.504;9.588;2022-08-21T09:18:48;101432.09;;;25.29;48.40
8398;BME280;4236;54.504;9.588;2022-08-21T09:21:27;101427.09;;;25.56;48.96
8398;BME280;4236;54.504;9.588;2022-08-21T09:24:00;101427.03;;;25.66;48.99
8398;BME280;4236;54.504;9.588;2022-08-21T09:26:34;101422.97;;;25.64;48.58
8398;BME280;4236;54.504;9.588;2022-08-21T09:29:08;101422.31;;;25.82;48.78
8398;BME280;4236;54.504;9.588;2022-08-21T09:31:38;101418.81;;;25.76;46.94
8398;BME280;4236;54.504;9.588;2022-08-21T09:34:08;101410.09;;;25.74;45.14
8398;BME280;4236;54.504;9.588;2022-08-21T09:36:39;101419.59;;;25.82;46.33
8398;BME280;4236;54.504;9.588;2022-08-21T09:39:11;101412.16;;;25.93;46.17
8398;BME280;4236;54.504;9.588;2022-08-21T09:41:39;101414.91;;;25.88;46.54
8398;BME280;4236;54.504;9.588;2022-08-21T09:44:08;101414.56;;;26.04;45.93
8398;BME280;4236;54.504;9.588;2022-08-21T09:46:35;101419.16;;;26.09;45.96
8398;BME280;4236;54.504;9.588;2022-08-21T09:49:04;101419.91;;;26.24;46.74
8398;BME280;4236;54.504;9.588;2022-08-21T09:51:50;101412.28;;;26.21;46.52
8398;BME280;4236;54.504;9.588;2022-08-21T09:54:25;101411.47;;;26.21;46.42
8398;BME280;4236;54.504;9.588;2022-08-21T09:56:56;101408.09;;;26.34;46.49
8398;BME280;4236;54.504;9.588;2022-08-21T09:59:43;101414.78;;;26.52;45.62
8398;BME280;4236;54.504;9.588;2022-08-21T10:02:23;101411.97;;;26.28;46.69
8398;BME280;4236;54.504;9.588;2022-08-21T10:04:53;101403.50;;;26.24;45.74
8398;BME280;4236;54.504;9.588;2022-08-21T10:07:22;101405.63;;;26.32;47.01
8398;BME280;4236;54.504;9.588;2022-08-21T10:10:03;101414.03;;;26.41;47.07
8398;BME280;4236;54.504;9.588;2022-08-21T10:12:41;101407.59;;;26.61;46.63
8398;BME280;4236;54.504;9.588;2022-08-21T10:15:18;101407.16;;;26.77;46.88
8398;BME280;4236;54.504;9.588;2022-08-21T10:17:54;101401.44;;;26.45;45.60
8398;BME280;4236;54.504;9.588;2022-08-21T10:20:30;101404.81;;;26.66;46.13
8398;BME280;4236;54.504;9.588;2022-08-21T10:23:20;101395.44;;;26.72;45.07
8398;BME280;4236;54.504;9.588;2022-08-21T10:25:58;101397.88;;;26.73;43.57
8398;BME280;4236;54.504;9.588;2022-08-21T10:28:45;101391.13;;;26.66;42.25
8398;BME280;4236;54.504;9.588;2022-08-21T10:31:21;101395.34;;;26.53;42.51
8398;BME280;4236;54.504;9.588;2022-08-21T10:34:06;101401.25;;;26.65;43.22
8398;BME280;4236;54.504;9.588;2022-08-21T10:36:44;101395.72;;;26.70;42.79
8398;BME280;4236;54.504;9.588;2022-08-21T10:39:20;101405.03;;;26.69;43.81
8398;BME280;4236;54.504;9.588;2022-08-21T10:42:19;101405.50;;;26.81;41.89
8398;BME280;4236;54.504;9.588;2022-08-21T10:45:02;101398.72;;;27.03;40.51
8398;BME280;4236;54.504;9.588;2022-08-21T10:47:41;101402.50;;;27.07;41.65
8398;BME280;4236;54.504;9.588;2022-08-21T10:50:19;101410.63;;;27.17;41.68
8398;BME280;4236;54.504;9.588;2022-08-21T10:52:59;101409.44;;;26.99;41.56
8398;BME280;4236;54.504;9.588;2022-08-21T10:55:32;101401.03;;;26.90;42.65
8398;BME280;4236;54.504;9.588;2022-08-21T10:58:07;101402.84;;;27.00;42.87
8398;BME280;4236;54.504;9.588;2022-08-21T11:00:43;101401.34;;;27.13;42.40
8398;BME280;4236;54.504;9.588;2022-08-21T11:03:16;101401.00;;;27.19;40.64
8398;BME280;4236;54.504;9.588;2022-08-21T11:05:48;101404.97;;;27.32;40.96
8398;BME280;4236;54.504;9.588;2022-08-21T11:08:21;101412.34;;;27.31;40.20
8398;BME280;4236;54.504;9.588;2022-08-21T11:10:52;101400.81;;;27.34;38.60
8398;BME280;4236;54.504;9.588;2022-08-21T11:13:35;101412.56;;;26.87;41.00
8398;BME280;4236;54.504;9.588;2022-08-21T11:16:10;101411.41;;;26.93;41.58
8398;BME280;4236;54.504;9.588;2022-08-21T11:18:45;101412.25;;;26.94;42.27
8398;BME280;4236;54.504;9.588;2022-08-21T11:21:27;101413.03;;;27.18;39.72
8398;BME280;4236;54.504;9.588;2022-08-21T11:24:00;101417.66;;;27.23;40.54
8398;BME280;4236;54.504;9.588;2022-08-21T11:26:35;101409.13;;;27.53;40.29
8398;BME280;4236;54.504;9.588;2022-08-21T11:29:11;101407.94;;;27.59;40.29
8398;BME280;4236;54.504;9.588;2022-08-21T11:31:51;101415.81;;;27.66;39.86
8398;BME280;4236;54.504;9.588;2022-08-21T11:34:34;101412.03;;;27.80;38.65
8398;BME280;4236;54.504;9.588;2022-08-21T11:37:12;101410.50;;;27.74;40.50
8398;BME280;4236;54.504;9.588;2022-08-21T11:39:53;101409.44;;;27.89;40.32
8398;BME280;4236;54.504;9.588;2022-08-21T11:42:30;101402.44;;;28.01;40.88
8398;BME280;4236;54.504;9.588;2022-08-21T11:45:14;101406.59;;;28.18;40.73
8398;BME280;4236;54.504;9.588;2022-08-21T11:47:54;101400.97;;;28.41;40.64
8398;BME280;4236;54.504;9.588;2022-08-21T11:50:26;101411.00;;;28.32;40.23
8398;BME280;4236;54.504;9.588;2022-08-21T11:53:05;101407.59;;;28.40;41.14
8398;BME280;4236;54.504;9.588;2022-08-21T11:55:39;101409.06;;;28.51;39.71
8398;BME280;4236;54.504;9.588;2022-08-21T11:58:11;101402.03;;;28.45;40.57
8398;BME280;4236;54.504;9.588;2022-08-21T12:00:47;101416.69;;;28.73;40.79
8398;BME280;4236;54.504;9.588;2022-08-21T12:03:23;101409.78;;;28.89;38.95
8398;BME280;4236;54.504;9.588;2022-08-21T12:05:53;101408.47;;;28.54;40.23
8398;BME280;4236;54.504;9.588;2022-08-21T12:08:33;101414.16;;;28.58;40.49
8398;BME280;4236;54.504;9.588;2022-08-21T12:11:05;101413.03;;;28.91;40.09
8398;BME280;4236;54.504;9.588;2022-08-21T12:13:35;101407.97;;;28.85;40.39
8398;BME280;4236;54.504;9.588;2022-08-21T12:16:15;101410.03;;;29.20;39.58
8398;BME280;4236;54.504;9.588;2022-08-21T12:19:03;101414.84;;;29.42;37.83
8398;BME280;4236;54.504;9.588;2022-08-21T12:21:31;101415.22;;;29.49;38.06
8398;BME280;4236;54.504;9.588;2022-08-21T12:24:03;101417.34;;;29.52;38.13
8398;BME280;4236;54.504;9.588;2022-08-21T12:26:34;101417.16;;;29.62;38.25
8398;BME280;4236;54.504;9.588;2022-08-21T12:29:14;101411.53;;;29.67;38.83
8398;BME280;4236;54.504;9.588;2022-08-21T12:31:56;101397.09;;;29.21;39.56
8398;BME280;4236;54.504;9.588;2022-08-21T12:34:36;101402.78;;;28.97;40.07
8398;BME280;4236;54.504;9.588;2022-08-21T12:37:07;101405.19;;;28.52;40.35
8398;BME280;4236;54.504;9.588;2022-08-21T12:39:43;101404.78;;;28.59;41.02
8398;BME280;4236;54.504;9.588;2022-08-21T12:42:16;101409.13;;;28.65;41.97
8398;BME280;4236;54.504;9.588;2022-08-21T12:44:48;101404.44;;;28.47;41.53
8398;BME280;4236;54.504;9.588;2022-08-21T12:47:25;101402.25;;;28.95;41.27
8398;BME280;4236;54.504;9.588;2022-08-21T12:49:59;101404.19;;;28.62;41.90
8398;BME280;4236;54.504;9.588;2022-08-21T12:52:32;101413.16;;;28.35;43.21
8398;BME280;4236;54.504;9.588;2022-08-21T12:55:06;101408.00;;;28.15;43.31
8398;BME280;4236;54.504;9.588;2022-08-21T12:57:36;101414.84;;;27.94;42.82
8398;BME280;4236;54.504;9.588;2022-08-21T13:00:08;101410.31;;;27.84;44.21
8398;BME280;4236;54.504;9.588;2022-08-21T13:02:46;101417.34;;;27.72;44.71
8398;BME280;4236;54.504;9.588;2022-08-21T13:05:18;101420.47;;;27.18;45.80
8398;BME280;4236;54.504;9.588;2022-08-21T13:07:47;101420.00;;;27.11;46.78
8398;BME280;4236;54.504;9.588;2022-08-21T13:10:19;101417.03;;;26.73;48.82
8398;BME280;4236;54.504;9.588;2022-08-21T13:12:48;101427.25;;;26.29;51.80
8398;BME280;4236;54.504;9.588;2022-08-21T13:15:23;101433.75;;;25.94;55.79
8398;BME280;4236;54.504;9.588;2022-08-21T13:18:02;101435.00;;;25.58;56.34
8398;BME280;4236;54.504;9.588;2022-08-21T13:20:35;101426.56;;;25.49;55.08
8398;BME280;4236;54.504;9.588;2022-08-21T13:23:21;101431.78;;;25.36;58.13
8398;BME280;4236;54.504;9.588;2022-08-21T13:25:50;101435.09;;;25.33;57.51
8398;BME280;4236;54.504;9.588;2022-08-21T13:28:18;101442.44;;;25.27;57.48
8398;BME280;4236;54.504;9.588;2022-08-21T13:30:47;101439.19;;;25.15;57.51